createdAt,value
2019-03-28T00:03:27.091Z,1.40
2019-03-28T00:07:47.617Z,1.40
2019-03-28T00:12:06.617Z,1.57
2019-03-28T00:16:25.853Z,1.33
2019-03-28T00:20:45.092Z,1.50
2019-03-28T00:25:07.869Z,1.13
2019-03-28T00:29:28.390Z,1.50
2019-03-28T00:33:48.374Z,1.27
2019-03-28T00:38:08.227Z,1.00
2019-03-28T00:42:27.434Z,1.30
2019-03-28T00:46:47.403Z,1.40
2019-03-28T00:51:06.975Z,1.60
2019-03-28T00:55:27.090Z,1.60
2019-03-28T00:59:45.990Z,1.63
2019-03-28T01:04:05.825Z,1.40
2019-03-28T01:08:25.837Z,1.20
2019-03-28T01:12:46.039Z,1.57
2019-03-28T01:17:05.241Z,1.20
2019-03-28T01:21:24.321Z,1.80
2019-03-28T01:25:44.256Z,1.40
2019-03-28T01:30:03.281Z,1.60
2019-03-28T01:34:23.682Z,1.57
2019-03-28T01:38:42.904Z,1.13
2019-03-28T01:43:01.896Z,1.47
2019-03-28T01:47:21.428Z,1.27
2019-03-28T01:51:40.406Z,1.50
2019-03-28T01:55:59.423Z,1.63
2019-03-28T02:00:18.517Z,1.43
2019-03-28T02:04:37.573Z,1.30
2019-03-28T02:08:56.587Z,1.40
2019-03-28T02:13:15.614Z,1.50
2019-03-28T02:17:34.969Z,1.70
2019-03-28T02:21:54.841Z,1.70
2019-03-28T02:26:14.280Z,1.47
2019-03-28T02:30:35.244Z,1.70
2019-03-28T02:34:54.212Z,1.63
2019-03-28T02:39:13.260Z,1.33
2019-03-28T02:43:32.335Z,1.60
2019-03-28T02:47:51.701Z,1.97
2019-03-28T02:52:11.211Z,1.63
2019-03-28T02:56:30.690Z,1.43
2019-03-28T03:00:51.880Z,1.37
2019-03-28T03:05:11.720Z,1.07
2019-03-28T03:09:31.676Z,1.37
2019-03-28T03:13:51.007Z,1.33
2019-03-28T03:18:11.705Z,1.30
2019-03-28T03:22:32.273Z,1.33
2019-03-28T03:26:51.348Z,1.40
2019-03-28T03:31:10.507Z,1.43
2019-03-28T03:35:29.532Z,1.40
2019-03-28T03:39:48.549Z,1.40
2019-03-28T03:44:07.460Z,1.60
2019-03-28T03:48:28.528Z,1.30
2019-03-28T03:52:47.539Z,1.60
2019-03-28T03:57:06.479Z,1.60
2019-03-28T04:01:26.346Z,1.30
2019-03-28T04:05:46.743Z,1.37
2019-03-28T04:10:06.575Z,1.70
2019-03-28T04:14:25.714Z,1.40
2019-03-28T04:18:45.201Z,1.33
2019-03-28T04:23:04.707Z,1.40
2019-03-28T04:27:23.873Z,1.67
2019-03-28T04:31:42.832Z,1.53
2019-03-28T04:36:01.925Z,1.63
2019-03-28T04:40:20.797Z,1.47
2019-03-28T04:44:39.834Z,1.83
2019-03-28T04:48:58.842Z,1.77
2019-03-28T04:53:17.774Z,2.20
2019-03-28T04:57:40.925Z,1.80
2019-03-28T05:02:02.793Z,1.50
2019-03-28T05:06:19.704Z,1.90
2019-03-28T05:10:38.722Z,1.40
2019-03-28T05:14:57.811Z,1.60
2019-03-28T05:19:18.421Z,1.47
2019-03-28T05:23:38.962Z,1.47
2019-03-28T05:27:59.326Z,1.60
2019-03-28T05:32:18.896Z,1.43
2019-03-28T05:36:38.432Z,1.30
2019-03-28T05:40:57.434Z,1.50
2019-03-28T05:45:17.618Z,2.00
2019-03-28T05:49:36.816Z,1.63
2019-03-28T05:53:55.814Z,1.80
2019-03-28T05:58:14.880Z,1.73
2019-03-28T06:02:34.840Z,1.60
2019-03-28T06:06:54.835Z,1.70
2019-03-28T06:11:13.968Z,2.20
2019-03-28T06:15:33.059Z,2.17
2019-03-28T06:19:52.534Z,2.20
2019-03-28T06:24:11.494Z,2.13
2019-03-28T06:28:31.091Z,2.00
2019-03-28T06:32:51.546Z,1.80
2019-03-28T06:37:11.157Z,1.70
2019-03-28T06:41:30.330Z,1.80
2019-03-28T06:45:49.284Z,1.60
2019-03-28T06:50:10.015Z,2.03
2019-03-28T06:54:29.080Z,1.87
2019-03-28T06:58:48.193Z,2.37
2019-03-28T07:03:08.290Z,1.93
2019-03-28T07:07:28.861Z,2.00
2019-03-28T07:11:49.297Z,2.37
2019-03-28T07:16:09.458Z,2.70
2019-03-28T07:20:28.545Z,2.60
2019-03-28T07:24:48.333Z,2.70
2019-03-28T07:29:07.903Z,2.70
2019-03-28T07:33:27.168Z,3.10
2019-03-28T07:37:46.299Z,2.07
2019-03-28T07:42:06.442Z,2.33
2019-03-28T07:46:27.344Z,2.27
2019-03-28T07:50:48.274Z,2.00
2019-03-28T07:55:08.519Z,1.93
2019-03-28T07:59:29.247Z,2.40
2019-03-28T08:03:48.403Z,2.93
2019-03-28T08:08:08.301Z,2.90
2019-03-28T08:12:27.477Z,3.20
2019-03-28T08:16:46.911Z,3.27
2019-03-28T08:21:07.214Z,2.97
2019-03-28T08:25:27.834Z,2.87
2019-03-28T08:29:47.302Z,2.57
2019-03-28T08:34:06.550Z,3.20
2019-03-28T08:38:26.670Z,2.90
2019-03-28T08:42:46.174Z,2.57
2019-03-28T08:47:06.316Z,3.87
2019-03-28T08:51:27.343Z,3.30
2019-03-28T08:55:46.440Z,2.80
2019-03-28T09:00:06.290Z,2.53
2019-03-28T09:04:25.263Z,2.70
2019-03-28T09:08:44.431Z,3.00
2019-03-28T09:13:03.346Z,2.80
2019-03-28T09:17:24.013Z,2.40
2019-03-28T09:21:43.325Z,1.77
2019-03-28T09:26:04.394Z,1.73
2019-03-28T09:30:48.251Z,2.40
2019-03-28T09:35:00.982Z,2.87
2019-03-28T09:39:20.219Z,2.40
2019-03-28T09:43:39.203Z,2.67
2019-03-28T09:47:58.696Z,2.80
2019-03-28T09:52:17.634Z,2.30
2019-03-28T09:56:36.887Z,2.60
2019-03-28T10:01:02.839Z,2.50
2019-03-28T10:05:18.616Z,2.60
2019-03-28T10:09:37.511Z,2.50
2019-03-28T10:13:57.186Z,2.20
2019-03-28T10:18:16.166Z,2.70
2019-03-28T10:22:35.674Z,2.83
2019-03-28T10:26:54.860Z,2.67
2019-03-28T10:31:16.918Z,2.13
2019-03-28T10:35:37.808Z,2.47
2019-03-28T10:39:57.337Z,2.90
2019-03-28T10:44:16.234Z,3.17
2019-03-28T10:48:35.290Z,3.20
2019-03-28T10:52:55.794Z,2.33
2019-03-28T10:57:28.898Z,2.57
2019-03-28T11:01:48.200Z,2.60
2019-03-28T11:05:56.725Z,2.50
2019-03-28T11:10:17.523Z,2.13
2019-03-28T11:14:36.964Z,2.70
2019-03-28T11:18:55.985Z,2.50
2019-03-28T11:23:16.171Z,2.40
2019-03-28T11:27:35.858Z,2.43
2019-03-28T11:31:55.788Z,3.27
2019-03-28T11:36:14.841Z,3.00
2019-03-28T11:40:33.791Z,2.30
2019-03-28T11:44:53.392Z,2.40
2019-03-28T11:49:13.233Z,2.00
2019-03-28T11:53:32.279Z,1.97
2019-03-28T11:57:51.345Z,1.87
2019-03-28T12:02:19.673Z,1.77
2019-03-28T12:06:32.286Z,1.80
2019-03-28T12:10:51.359Z,2.07
2019-03-28T12:15:13.230Z,1.70
2019-03-28T12:19:33.191Z,1.80
2019-03-28T12:23:52.467Z,1.67
2019-03-28T12:28:11.710Z,1.80
2019-03-28T12:32:31.512Z,1.80
2019-03-28T12:36:50.792Z,1.73
2019-03-28T12:41:09.761Z,1.80
2019-03-28T12:45:28.694Z,1.50
2019-03-28T12:49:48.975Z,1.50
2019-03-28T12:54:07.997Z,1.40
2019-03-28T12:58:27.365Z,1.60
2019-03-28T13:02:50.955Z,1.50
2019-03-28T13:07:09.900Z,1.40
2019-03-28T13:11:28.977Z,1.60
2019-03-28T13:15:49.511Z,1.80
2019-03-28T13:20:10.434Z,1.80
2019-03-28T13:24:29.469Z,1.80
2019-03-28T13:28:48.739Z,1.80
2019-03-28T13:33:07.838Z,1.90
2019-03-28T13:37:27.023Z,1.80
2019-03-28T13:41:46.402Z,1.73
2019-03-28T13:46:06.584Z,1.93
2019-03-28T13:50:26.277Z,1.90
2019-03-28T13:54:45.376Z,2.10
2019-03-28T13:59:05.246Z,1.60
2019-03-28T14:03:24.846Z,1.93
2019-03-28T14:07:45.369Z,1.97
2019-03-28T14:12:04.523Z,1.70
2019-03-28T14:16:23.689Z,1.90
2019-03-28T14:20:42.766Z,2.20
2019-03-28T14:25:01.903Z,1.90
2019-03-28T14:29:21.245Z,1.87
2019-03-28T14:33:40.058Z,1.90
2019-03-28T14:37:59.396Z,1.67
2019-03-28T14:42:19.946Z,1.70
2019-03-28T14:46:39.203Z,1.77
2019-03-28T14:50:58.772Z,1.93
2019-03-28T14:55:17.695Z,1.80
2019-03-28T14:59:37.759Z,1.53
2019-03-28T15:03:56.972Z,1.80
2019-03-28T15:08:16.294Z,1.87
2019-03-28T15:12:37.312Z,1.77
2019-03-28T15:16:59.588Z,1.77
2019-03-28T15:21:19.149Z,2.07
2019-03-28T15:25:38.206Z,2.30
2019-03-28T15:29:57.918Z,1.90
2019-03-28T15:34:17.290Z,2.03
2019-03-28T15:38:36.363Z,2.10
2019-03-28T15:42:56.807Z,2.37
2019-03-28T15:47:15.750Z,2.20
2019-03-28T15:51:34.830Z,2.40
2019-03-28T15:55:54.157Z,2.27
2019-03-28T16:00:14.270Z,1.60
2019-03-28T16:04:33.247Z,1.90
2019-03-28T16:08:53.557Z,1.70
2019-03-28T16:13:12.702Z,1.77
2019-03-28T16:17:31.727Z,1.67
2019-03-28T16:21:51.126Z,1.63
2019-03-28T16:26:10.019Z,1.83
2019-03-28T16:30:41.442Z,1.67
2019-03-28T16:35:02.307Z,1.50
2019-03-28T16:39:23.270Z,1.63
2019-03-28T16:43:42.278Z,1.73
2019-03-28T16:48:01.795Z,1.57
2019-03-28T16:52:21.057Z,1.40
2019-03-28T16:56:47.361Z,1.30
2019-03-28T17:01:07.297Z,1.50
2019-03-28T17:05:26.351Z,1.40
2019-03-28T17:09:45.501Z,1.20
2019-03-28T17:14:04.498Z,1.13
2019-03-28T17:18:23.426Z,1.20
2019-03-28T17:22:42.499Z,1.33
2019-03-28T17:27:01.642Z,1.20
2019-03-28T17:31:22.311Z,1.10
2019-03-28T17:35:41.967Z,1.40
2019-03-28T17:40:01.410Z,1.30
2019-03-28T17:44:20.431Z,1.27
2019-03-28T17:48:39.436Z,1.07
2019-03-28T17:52:59.035Z,1.33
2019-03-28T17:57:21.164Z,1.40
2019-03-28T18:01:42.858Z,1.43
2019-03-28T18:06:02.885Z,1.50
2019-03-28T18:10:23.558Z,1.43
2019-03-28T18:14:42.752Z,1.30
2019-03-28T18:19:02.717Z,1.43
2019-03-28T18:23:23.682Z,1.33
2019-03-28T18:27:46.964Z,1.70
2019-03-28T18:32:06.805Z,1.33
2019-03-28T18:36:26.902Z,1.40
2019-03-28T18:40:46.829Z,1.50
2019-03-28T18:45:12.723Z,1.60
2019-03-28T18:49:32.316Z,1.13
2019-03-28T18:54:00.549Z,1.47
2019-03-28T18:58:21.085Z,1.50
2019-03-28T19:02:40.230Z,1.30
2019-03-28T19:06:59.329Z,1.43
2019-03-28T19:11:18.804Z,1.37
2019-03-28T19:15:37.972Z,1.40
2019-03-28T19:19:59.468Z,1.60
2019-03-28T19:24:19.102Z,1.60
2019-03-28T19:28:38.842Z,1.30
2019-03-28T19:32:57.926Z,1.57
2019-03-28T19:37:22.613Z,1.50
2019-03-28T19:41:42.035Z,1.50
2019-03-28T19:46:02.014Z,1.63
2019-03-28T19:50:29.957Z,1.63
2019-03-28T19:54:50.446Z,1.60
2019-03-28T19:59:11.071Z,1.50
2019-03-28T20:03:31.182Z,1.20
2019-03-28T20:07:51.367Z,1.27
2019-03-28T20:12:13.225Z,1.20
2019-03-28T20:16:33.710Z,1.10
2019-03-28T20:20:55.673Z,1.30
2019-03-28T20:25:14.961Z,1.30
2019-03-28T20:29:35.217Z,1.40
2019-03-28T20:33:56.217Z,1.20
2019-03-28T20:38:15.466Z,1.47
2019-03-28T20:42:35.166Z,1.23
2019-03-28T20:46:55.289Z,1.50
2019-03-28T20:51:15.721Z,1.30
2019-03-28T20:55:35.137Z,1.40
2019-03-28T20:59:54.591Z,1.40
2019-03-28T21:04:13.691Z,1.60
2019-03-28T21:08:32.958Z,1.70
2019-03-28T21:12:52.127Z,1.27
2019-03-28T21:17:11.658Z,1.73
2019-03-28T21:21:30.978Z,1.30
2019-03-28T21:25:50.641Z,1.67
2019-03-28T21:30:11.478Z,1.57
2019-03-28T21:34:31.132Z,1.40
2019-03-28T21:38:50.577Z,1.70
2019-03-28T21:43:11.011Z,1.50
2019-03-28T21:47:32.211Z,1.43
2019-03-28T21:51:51.385Z,1.50
2019-03-28T21:56:14.121Z,1.93
2019-03-28T22:00:31.895Z,1.80
2019-03-28T22:04:51.049Z,1.80
2019-03-28T22:09:11.105Z,1.67
2019-03-28T22:13:30.334Z,1.90
2019-03-28T22:17:49.275Z,2.17
2019-03-28T22:22:11.188Z,2.27
2019-03-28T22:26:30.156Z,1.70
2019-03-28T22:30:50.088Z,2.00
2019-03-28T22:35:11.009Z,2.20
2019-03-28T22:39:31.276Z,1.90
2019-03-28T22:43:50.788Z,1.90
2019-03-28T22:48:11.477Z,2.10
2019-03-28T22:52:31.081Z,1.80
2019-03-28T22:56:51.730Z,2.30
2019-03-28T23:01:11.581Z,2.00
2019-03-28T23:05:31.241Z,2.00
2019-03-28T23:09:50.647Z,1.80
2019-03-28T23:14:09.706Z,2.10
2019-03-28T23:18:29.412Z,1.90
2019-03-28T23:22:49.504Z,2.17
2019-03-28T23:27:08.543Z,1.77
2019-03-28T23:31:27.873Z,1.70
2019-03-28T23:35:46.931Z,1.77
2019-03-28T23:40:06.286Z,1.60
2019-03-28T23:44:25.222Z,1.73
2019-03-28T23:48:44.808Z,1.60
2019-03-28T23:53:04.022Z,1.57
2019-03-28T23:57:23.481Z,1.50
